Lincoln, NE (68501)

4:11 AM CDT on August 28, 2015 (GMT -0500)
Capitol Beach | | Change Station
CLOSE
Current Station
Personal Weather Station
Location: Lincoln, NE
Elevation: 1134 ft
Nearby Weather Stations

Elev 1134 ft 40.82 °N, 96.73 °W | Updated 51 seconds ago

Overcast
Overcast
70.3 °F
Feels Like 70.3 °F
N
6.0
Wind Variable Wind from SSE
Gusts 10.0 mph

Today
High -- | Low -- °F
--% Chance of Precip.
Yesterday
High -- | Low -- °F
Precip. -- in
6:49 AM 8:06 PM
Waxing Gibbous, 97% visible
Pressure 29.80 in
Visibility 10.0 miles
Clouds Overcast 7000 ft
Dew Point 68 °F
Humidity 92%
Rainfall 1.02 in
Snow Depth Not available.
UV 0 out of 12
Pollen 8.70 out of 12
Air Quality Not available.
Flu Activity Not available.
METAR KLNK 280854Z AUTO 16010KT 10SM OVC070 22/20 A2983 RMK AO2 SLP090 60077 T02170200 56021
Pressure 29.80 in
Visibility 10.0 miles
Clouds Overcast 7000 ft
Dew Point 68 °F
Humidity 92%
Rainfall 1.02 in
Snow Depth Not available.
UV 0 out of 12
Pollen 8.70 out of 12
Air Quality Not available.
Flu Activity Not available.
METAR KLNK 280854Z AUTO 16010KT 10SM OVC070 22/20 A2983 RMK AO2 SLP090 60077 T02170200 56021

10-Day Weather Forecast

×

Almanac

Astronomy

Aug. 28, 2015 Rise Set
Actual Time
Civil Twilight
Nautical Twilight
Astronomical Twilight
Moon
Length of Visible Light
Length of Day
Tomorrow will be .
, % of the Moon is Illuminated

Today's Extremes

State Highs State Lows

Community

WunderPhotos

Upload Photos

1,850,356 photos uploaded!

WunderBlogs® & News

Nearby

Air Quality

  Air Quality AQ Index Pollutant
Not available.

Snow Depth

Station Depth Elevation

Earthquake Activity

City Distance Mag. Time & Date
Minimum magnitude displayed is 2.5.

Coastal Water Temperatures

Place Temperature

Stations

Nearby Weather Stations

Station Location Temp. Windchill Dew Point Humidity Wind Precip. Elev Updated Type